sensor_id;sensor_type;location;lat;lon;timestamp;temperature;humidity
33255;DHT22;19623;52.482;9.762;2022-12-11T00:01:32;-0.20;99.90
33255;DHT22;19623;52.482;9.762;2022-12-11T00:03:58;-0.20;99.90
33255;DHT22;19623;52.482;9.762;2022-12-11T00:06:23;-0.10;99.90
33255;DHT22;19623;52.482;9.762;2022-12-11T00:08:53;-0.10;99.90
33255;DHT22;19623;52.482;9.762;2022-12-11T00:11:19;-0.10;99.90
33255;DHT22;19623;52.482;9.762;2022-12-11T00:13:46;-0.20;99.90
33255;DHT22;19623;52.482;9.762;2022-12-11T00:16:11;-0.20;99.90
33255;DHT22;19623;52.482;9.762;2022-12-11T00:18:37;-0.20;99.90
33255;DHT22;19623;52.482;9.762;2022-12-11T00:21:04;-0.20;99.90
33255;DHT22;19623;52.482;9.762;2022-12-11T00:23:30;-0.10;99.90
33255;DHT22;19623;52.482;9.762;2022-12-11T00:25:56;0.00;99.90
33255;DHT22;19623;52.482;9.762;2022-12-11T00:28:22;0.10;99.90
33255;DHT22;19623;52.482;9.762;2022-12-11T00:30:48;0.10;99.90
33255;DHT22;19623;52.482;9.762;2022-12-11T00:33:14;0.20;99.90
33255;DHT22;19623;52.482;9.762;2022-12-11T00:35:41;0.20;99.90
33255;DHT22;19623;52.482;9.762;2022-12-11T00:38:07;0.20;99.90
33255;DHT22;19623;52.482;9.762;2022-12-11T00:40:34;0.30;99.90
33255;DHT22;19623;52.482;9.762;2022-12-11T00:43:00;0.20;99.90
33255;DHT22;19623;52.482;9.762;2022-12-11T00:45:26;0.10;99.90
33255;DHT22;19623;52.482;9.762;2022-12-11T00:47:52;0.00;99.90
33255;DHT22;19623;52.482;9.762;2022-12-11T00:50:17;0.00;99.90
33255;DHT22;19623;52.482;9.762;2022-12-11T00:52:43;0.10;99.90
33255;DHT22;19623;52.482;9.762;2022-12-11T00:55:08;0.10;99.90
33255;DHT22;19623;52.482;9.762;2022-12-11T00:57:35;0.20;99.90
33255;DHT22;19623;52.482;9.762;2022-12-11T01:00:00;0.30;99.90
33255;DHT22;19623;52.482;9.762;2022-12-11T01:02:26;0.30;99.90
33255;DHT22;19623;52.482;9.762;2022-12-11T01:04:52;0.30;99.90
33255;DHT22;19623;52.482;9.762;2022-12-11T01:07:17;0.30;99.90
33255;DHT22;19623;52.482;9.762;2022-12-11T01:09:43;0.30;99.90
33255;DHT22;19623;52.482;9.762;2022-12-11T01:12:27;0.20;99.90
33255;DHT22;19623;52.482;9.762;2022-12-11T01:14:53;0.30;99.90
33255;DHT22;19623;52.482;9.762;2022-12-11T01:17:19;0.30;99.90
33255;DHT22;19623;52.482;9.762;2022-12-11T01:19:45;0.30;99.90
33255;DHT22;19623;52.482;9.762;2022-12-11T01:22:10;0.20;99.90
33255;DHT22;19623;52.482;9.762;2022-12-11T01:24:36;0.20;99.90
33255;DHT22;19623;52.482;9.762;2022-12-11T01:27:03;0.20;99.90
33255;DHT22;19623;52.482;9.762;2022-12-11T01:29:28;0.10;99.90
33255;DHT22;19623;52.482;9.762;2022-12-11T01:31:54;0.10;99.90
33255;DHT22;19623;52.482;9.762;2022-12-11T01:34:20;0.00;99.90
33255;DHT22;19623;52.482;9.762;2022-12-11T01:36:45;0.10;99.90
33255;DHT22;19623;52.482;9.762;2022-12-11T01:39:11;0.20;99.90
33255;DHT22;19623;52.482;9.762;2022-12-11T01:41:37;0.20;99.90
33255;DHT22;19623;52.482;9.762;2022-12-11T01:45:06;0.30;99.90
33255;DHT22;19623;52.482;9.762;2022-12-11T01:46:52;0.50;99.90
33255;DHT22;19623;52.482;9.762;2022-12-11T01:49:22;0.50;99.90
33255;DHT22;19623;52.482;9.762;2022-12-11T01:52:06;0.50;99.90
33255;DHT22;19623;52.482;9.762;2022-12-11T01:54:33;0.50;99.90
33255;DHT22;19623;52.482;9.762;2022-12-11T01:57:05;0.40;99.90
33255;DHT22;19623;52.482;9.762;2022-12-11T01:59:35;0.50;99.90
33255;DHT22;19623;52.482;9.762;2022-12-11T02:02:11;0.50;99.90
33255;DHT22;19623;52.482;9.762;2022-12-11T02:04:40;0.50;99.90
33255;DHT22;19623;52.482;9.762;2022-12-11T02:07:06;0.40;99.90
33255;DHT22;19623;52.482;9.762;2022-12-11T02:09:34;0.40;99.90
33255;DHT22;19623;52.482;9.762;2022-12-11T02:17:20;0.30;99.90
33255;DHT22;19623;52.482;9.762;2022-12-11T02:22:52;0.40;99.90
33255;DHT22;19623;52.482;9.762;2022-12-11T02:30:40;0.50;99.90
33255;DHT22;19623;52.482;9.762;2022-12-11T02:33:08;0.50;99.90
33255;DHT22;19623;52.482;9.762;2022-12-11T02:35:40;0.60;99.90
33255;DHT22;19623;52.482;9.762;2022-12-11T02:38:22;0.70;99.90
33255;DHT22;19623;52.482;9.762;2022-12-11T02:40:52;0.70;99.90
33255;DHT22;19623;52.482;9.762;2022-12-11T02:43:19;0.60;99.90
33255;DHT22;19623;52.482;9.762;2022-12-11T02:45:47;0.70;99.90
33255;DHT22;19623;52.482;9.762;2022-12-11T02:48:14;0.70;99.90
33255;DHT22;19623;52.482;9.762;2022-12-11T02:50:50;0.70;99.90
33255;DHT22;19623;52.482;9.762;2022-12-11T02:53:20;0.70;99.90
33255;DHT22;19623;52.482;9.762;2022-12-11T02:55:51;0.80;99.90
33255;DHT22;19623;52.482;9.762;2022-12-11T02:58:26;0.90;99.90
33255;DHT22;19623;52.482;9.762;2022-12-11T03:00:52;0.80;99.90
33255;DHT22;19623;52.482;9.762;2022-12-11T03:03:18;0.70;99.90
33255;DHT22;19623;52.482;9.762;2022-12-11T03:05:44;0.70;99.90
33255;DHT22;19623;52.482;9.762;2022-12-11T03:08:10;0.70;99.90
33255;DHT22;19623;52.482;9.762;2022-12-11T03:10:36;0.70;99.90
33255;DHT22;19623;52.482;9.762;2022-12-11T03:13:03;0.60;99.90
33255;DHT22;19623;52.482;9.762;2022-12-11T03:15:39;0.60;99.90
33255;DHT22;19623;52.482;9.762;2022-12-11T03:18:16;0.60;99.90
33255;DHT22;19623;52.482;9.762;2022-12-11T03:20:54;0.50;99.90
33255;DHT22;19623;52.482;9.762;2022-12-11T03:23:31;0.40;99.90
33255;DHT22;19623;52.482;9.762;2022-12-11T03:26:04;0.50;99.90
33255;DHT22;19623;52.482;9.762;2022-12-11T03:28:37;0.50;99.90
33255;DHT22;19623;52.482;9.762;2022-12-11T03:31:13;0.60;99.90
33255;DHT22;19623;52.482;9.762;2022-12-11T03:33:44;0.70;99.90
33255;DHT22;19623;52.482;9.762;2022-12-11T03:36:20;0.70;99.90
33255;DHT22;19623;52.482;9.762;2022-12-11T03:38:58;0.70;99.90
33255;DHT22;19623;52.482;9.762;2022-12-11T03:41:26;0.50;99.90
33255;DHT22;19623;52.482;9.762;2022-12-11T03:43:56;0.50;99.90
33255;DHT22;19623;52.482;9.762;2022-12-11T03:46:27;0.50;99.90
33255;DHT22;19623;52.482;9.762;2022-12-11T03:48:55;0.50;99.90
33255;DHT22;19623;52.482;9.762;2022-12-11T03:51:23;0.50;99.90
33255;DHT22;19623;52.482;9.762;2022-12-11T03:53:50;0.40;99.90
33255;DHT22;19623;52.482;9.762;2022-12-11T03:56:17;0.20;99.90
33255;DHT22;19623;52.482;9.762;2022-12-11T03:58:44;0.10;99.90
33255;DHT22;19623;52.482;9.762;2022-12-11T04:01:10;0.10;99.90
33255;DHT22;19623;52.482;9.762;2022-12-11T04:03:37;0.20;99.90
33255;DHT22;19623;52.482;9.762;2022-12-11T04:06:03;0.40;99.90
33255;DHT22;19623;52.482;9.762;2022-12-11T04:08:28;0.50;99.90
33255;DHT22;19623;52.482;9.762;2022-12-11T04:10:54;0.50;99.90
33255;DHT22;19623;52.482;9.762;2022-12-11T04:13:40;0.60;99.90
33255;DHT22;19623;52.482;9.762;2022-12-11T04:16:06;0.70;99.90
33255;DHT22;19623;52.482;9.762;2022-12-11T04:18:32;0.80;99.90
33255;DHT22;19623;52.482;9.762;2022-12-11T04:21:17;0.80;99.90
33255;DHT22;19623;52.482;9.762;2022-12-11T04:24:02;0.80;99.90
33255;DHT22;19623;52.482;9.762;2022-12-11T04:26:40;0.80;99.90
33255;DHT22;19623;52.482;9.762;2022-12-11T04:29:06;0.70;99.90
33255;DHT22;19623;52.482;9.762;2022-12-11T04:31:32;0.80;99.90
33255;DHT22;19623;52.482;9.762;2022-12-11T04:33:57;0.80;99.90
33255;DHT22;19623;52.482;9.762;2022-12-11T04:36:23;0.70;99.90
33255;DHT22;19623;52.482;9.762;2022-12-11T04:38:49;0.80;99.90
33255;DHT22;19623;52.482;9.762;2022-12-11T04:41:15;0.70;99.90
33255;DHT22;19623;52.482;9.762;2022-12-11T04:43:41;0.70;99.90
33255;DHT22;19623;52.482;9.762;2022-12-11T04:48:37;0.70;99.90
33255;DHT22;19623;52.482;9.762;2022-12-11T04:51:03;0.60;99.90
33255;DHT22;19623;52.482;9.762;2022-12-11T04:53:30;0.50;99.90
33255;DHT22;19623;52.482;9.762;2022-12-11T04:55:56;0.50;99.90
33255;DHT22;19623;52.482;9.762;2022-12-11T04:58:22;0.60;99.90
33255;DHT22;19623;52.482;9.762;2022-12-11T05:00:48;0.60;99.90
33255;DHT22;19623;52.482;9.762;2022-12-11T05:03:14;0.70;99.90
33255;DHT22;19623;52.482;9.762;2022-12-11T05:05:40;0.70;99.90
33255;DHT22;19623;52.482;9.762;2022-12-11T05:08:06;0.70;99.90
33255;DHT22;19623;52.482;9.762;2022-12-11T05:10:32;0.60;99.90
33255;DHT22;19623;52.482;9.762;2022-12-11T05:12:58;0.40;99.90
33255;DHT22;19623;52.482;9.762;2022-12-11T05:15:23;0.30;99.90
33255;DHT22;19623;52.482;9.762;2022-12-11T05:17:49;0.30;99.90
33255;DHT22;19623;52.482;9.762;2022-12-11T05:20:15;0.50;99.90
33255;DHT22;19623;52.482;9.762;2022-12-11T05:22:41;0.50;99.90
33255;DHT22;19623;52.482;9.762;2022-12-11T05:25:06;0.60;99.90
33255;DHT22;19623;52.482;9.762;2022-12-11T05:27:33;0.60;99.90
33255;DHT22;19623;52.482;9.762;2022-12-11T05:29:58;0.50;99.90
33255;DHT22;19623;52.482;9.762;2022-12-11T05:32:24;0.40;99.90
33255;DHT22;19623;52.482;9.762;2022-12-11T05:34:50;0.40;99.90
33255;DHT22;19623;52.482;9.762;2022-12-11T05:37:16;0.30;99.90
33255;DHT22;19623;52.482;9.762;2022-12-11T05:39:41;0.30;99.90
33255;DHT22;19623;52.482;9.762;2022-12-11T05:42:07;0.30;99.90
33255;DHT22;19623;52.482;9.762;2022-12-11T05:44:33;0.20;99.90
33255;DHT22;19623;52.482;9.762;2022-12-11T05:46:59;0.30;99.90
33255;DHT22;19623;52.482;9.762;2022-12-11T05:49:25;0.40;99.90
33255;DHT22;19623;52.482;9.762;2022-12-11T05:51:50;0.30;99.90
33255;DHT22;19623;52.482;9.762;2022-12-11T05:54:16;0.30;99.90
33255;DHT22;19623;52.482;9.762;2022-12-11T05:56:42;0.40;99.90
33255;DHT22;19623;52.482;9.762;2022-12-11T05:59:08;0.50;99.90
33255;DHT22;19623;52.482;9.762;2022-12-11T06:01:36;0.60;99.90
33255;DHT22;19623;52.482;9.762;2022-12-11T06:04:03;0.70;99.90
33255;DHT22;19623;52.482;9.762;2022-12-11T06:06:30;0.70;99.90
33255;DHT22;19623;52.482;9.762;2022-12-11T06:08:56;0.70;99.90
33255;DHT22;19623;52.482;9.762;2022-12-11T06:11:23;0.60;99.90
33255;DHT22;19623;52.482;9.762;2022-12-11T06:13:50;0.60;99.90
33255;DHT22;19623;52.482;9.762;2022-12-11T06:16:16;0.40;99.90
33255;DHT22;19623;52.482;9.762;2022-12-11T06:18:43;0.40;99.90
33255;DHT22;19623;52.482;9.762;2022-12-11T06:21:29;0.40;99.90
33255;DHT22;19623;52.482;9.762;2022-12-11T06:23:57;0.40;99.90
33255;DHT22;19623;52.482;9.762;2022-12-11T06:26:24;0.40;99.90
33255;DHT22;19623;52.482;9.762;2022-12-11T06:28:50;0.60;99.90
33255;DHT22;19623;52.482;9.762;2022-12-11T06:31:17;0.70;99.90
33255;DHT22;19623;52.482;9.762;2022-12-11T06:33:43;0.70;99.90
33255;DHT22;19623;52.482;9.762;2022-12-11T06:36:11;0.70;99.90
33255;DHT22;19623;52.482;9.762;2022-12-11T06:38:38;0.60;99.90
33255;DHT22;19623;52.482;9.762;2022-12-11T06:41:05;0.60;99.90
33255;DHT22;19623;52.482;9.762;2022-12-11T06:43:32;0.40;99.90
33255;DHT22;19623;52.482;9.762;2022-12-11T06:46:14;0.40;99.90
33255;DHT22;19623;52.482;9.762;2022-12-11T06:48:41;0.40;99.90
33255;DHT22;19623;52.482;9.762;2022-12-11T06:51:11;0.50;99.90
33255;DHT22;19623;52.482;9.762;2022-12-11T06:53:37;0.50;99.90
33255;DHT22;19623;52.482;9.762;2022-12-11T06:56:13;0.40;99.90
33255;DHT22;19623;52.482;9.762;2022-12-11T06:58:41;0.40;99.90
33255;DHT22;19623;52.482;9.762;2022-12-11T07:01:16;0.40;99.90
33255;DHT22;19623;52.482;9.762;2022-12-11T07:03:42;0.20;99.90
33255;DHT22;19623;52.482;9.762;2022-12-11T07:06:08;0.10;99.90
33255;DHT22;19623;52.482;9.762;2022-12-11T07:08:34;0.10;99.90
33255;DHT22;19623;52.482;9.762;2022-12-11T07:11:10;0.00;99.90
33255;DHT22;19623;52.482;9.762;2022-12-11T07:13:37;-0.10;99.90
33255;DHT22;19623;52.482;9.762;2022-12-11T07:16:03;-0.10;99.90
33255;DHT22;19623;52.482;9.762;2022-12-11T07:18:30;0.00;99.90
33255;DHT22;19623;52.482;9.762;2022-12-11T07:20:58;0.10;99.90
33255;DHT22;19623;52.482;9.762;2022-12-11T07:23:25;0.20;99.90
33255;DHT22;19623;52.482;9.762;2022-12-11T07:25:51;0.40;99.90
33255;DHT22;19623;52.482;9.762;2022-12-11T07:28:17;0.50;99.90
33255;DHT22;19623;52.482;9.762;2022-12-11T07:30:42;0.50;99.90
33255;DHT22;19623;52.482;9.762;2022-12-11T07:33:08;0.50;99.90
33255;DHT22;19623;52.482;9.762;2022-12-11T07:35:34;0.50;99.90
33255;DHT22;19623;52.482;9.762;2022-12-11T07:38:01;0.50;99.90
33255;DHT22;19623;52.482;9.762;2022-12-11T07:40:26;0.50;99.90
33255;DHT22;19623;52.482;9.762;2022-12-11T07:42:52;0.50;99.90
33255;DHT22;19623;52.482;9.762;2022-12-11T07:45:18;0.40;99.90
33255;DHT22;19623;52.482;9.762;2022-12-11T07:47:43;0.40;99.90
33255;DHT22;19623;52.482;9.762;2022-12-11T07:50:09;0.50;99.90
33255;DHT22;19623;52.482;9.762;2022-12-11T07:52:35;0.60;99.90
33255;DHT22;19623;52.482;9.762;2022-12-11T07:55:00;0.60;99.90
33255;DHT22;19623;52.482;9.762;2022-12-11T07:57:27;0.70;99.90
33255;DHT22;19623;52.482;9.762;2022-12-11T07:59:53;0.60;99.90
33255;DHT22;19623;52.482;9.762;2022-12-11T08:02:18;0.60;99.90
33255;DHT22;19623;52.482;9.762;2022-12-11T08:04:44;0.60;99.90
33255;DHT22;19623;52.482;9.762;2022-12-11T08:07:10;0.60;99.90
33255;DHT22;19623;52.482;9.762;2022-12-11T08:09:37;0.60;99.90
33255;DHT22;19623;52.482;9.762;2022-12-11T08:12:03;0.60;99.90
33255;DHT22;19623;52.482;9.762;2022-12-11T08:14:28;0.70;99.90
33255;DHT22;19623;52.482;9.762;2022-12-11T08:16:54;0.60;99.90
33255;DHT22;19623;52.482;9.762;2022-12-11T08:19:21;0.50;99.90
33255;DHT22;19623;52.482;9.762;2022-12-11T08:21:47;0.50;99.90
33255;DHT22;19623;52.482;9.762;2022-12-11T08:24:13;0.50;99.90
33255;DHT22;19623;52.482;9.762;2022-12-11T08:26:40;0.50;99.90
33255;DHT22;19623;52.482;9.762;2022-12-11T08:29:06;0.50;99.90
33255;DHT22;19623;52.482;9.762;2022-12-11T08:31:32;0.60;99.90
33255;DHT22;19623;52.482;9.762;2022-12-11T08:33:58;0.70;99.90
33255;DHT22;19623;52.482;9.762;2022-12-11T08:36:24;0.70;99.90
33255;DHT22;19623;52.482;9.762;2022-12-11T08:38:51;0.80;99.90
33255;DHT22;19623;52.482;9.762;2022-12-11T08:41:29;0.80;99.90
33255;DHT22;19623;52.482;9.762;2022-12-11T08:43:56;0.80;99.90
33255;DHT22;19623;52.482;9.762;2022-12-11T08:46:29;0.80;99.90
33255;DHT22;19623;52.482;9.762;2022-12-11T08:48:55;0.80;99.90
33255;DHT22;19623;52.482;9.762;2022-12-11T08:51:22;0.80;99.90
33255;DHT22;19623;52.482;9.762;2022-12-11T08:53:49;0.80;99.90
33255;DHT22;19623;52.482;9.762;2022-12-11T08:56:18;0.80;99.90
33255;DHT22;19623;52.482;9.762;2022-12-11T08:58:44;0.70;99.90
33255;DHT22;19623;52.482;9.762;2022-12-11T09:01:30;0.70;99.90
33255;DHT22;19623;52.482;9.762;2022-12-11T09:03:56;0.80;99.90
33255;DHT22;19623;52.482;9.762;2022-12-11T09:06:25;0.80;99.90
33255;DHT22;19623;52.482;9.762;2022-12-11T09:08:54;0.80;99.90
33255;DHT22;19623;52.482;9.762;2022-12-11T09:11:26;0.90;99.90
33255;DHT22;19623;52.482;9.762;2022-12-11T09:13:53;0.80;99.90
33255;DHT22;19623;52.482;9.762;2022-12-11T09:16:23;0.70;99.90
33255;DHT22;19623;52.482;9.762;2022-12-11T09:18:51;0.70;99.90
33255;DHT22;19623;52.482;9.762;2022-12-11T09:21:23;0.80;99.90
33255;DHT22;19623;52.482;9.762;2022-12-11T09:23:53;0.80;99.90
33255;DHT22;19623;52.482;9.762;2022-12-11T09:26:23;0.90;99.90
33255;DHT22;19623;52.482;9.762;2022-12-11T09:28:49;0.90;99.90
33255;DHT22;19623;52.482;9.762;2022-12-11T09:31:29;0.80;99.90
33255;DHT22;19623;52.482;9.762;2022-12-11T09:34:00;0.80;99.90
33255;DHT22;19623;52.482;9.762;2022-12-11T09:36:30;0.90;99.90
33255;DHT22;19623;52.482;9.762;2022-12-11T09:39:02;1.00;99.90
33255;DHT22;19623;52.482;9.762;2022-12-11T09:44:34;1.00;99.90
33255;DHT22;19623;52.482;9.762;2022-12-11T09:50:14;0.90;99.90
33255;DHT22;19623;52.482;9.762;2022-12-11T09:55:37;1.00;99.90
33255;DHT22;19623;52.482;9.762;2022-12-11T09:58:33;0.90;99.90
33255;DHT22;19623;52.482;9.762;2022-12-11T10:01:21;1.00;99.90
33255;DHT22;19623;52.482;9.762;2022-12-11T10:06:42;1.10;99.90
33255;DHT22;19623;52.482;9.762;2022-12-11T10:12:35;1.20;99.90
33255;DHT22;19623;52.482;9.762;2022-12-11T10:17:43;1.30;99.90
33255;DHT22;19623;52.482;9.762;2022-12-11T10:20:27;1.40;99.90
33255;DHT22;19623;52.482;9.762;2022-12-11T10:22:56;1.40;99.90
33255;DHT22;19623;52.482;9.762;2022-12-11T10:25:39;1.50;99.90
33255;DHT22;19623;52.482;9.762;2022-12-11T10:28:21;1.50;99.90
33255;DHT22;19623;52.482;9.762;2022-12-11T10:31:05;1.50;99.90
33255;DHT22;19623;52.482;9.762;2022-12-11T10:33:58;1.40;99.90
33255;DHT22;19623;52.482;9.762;2022-12-11T10:36:31;1.50;99.90
33255;DHT22;19623;52.482;9.762;2022-12-11T10:38:58;1.30;99.90
33255;DHT22;19623;52.482;9.762;2022-12-11T10:41:39;1.20;99.90
33255;DHT22;19623;52.482;9.762;2022-12-11T10:46:44;1.00;99.90
33255;DHT22;19623;52.482;9.762;2022-12-11T10:49:30;0.90;99.90
33255;DHT22;19623;52.482;9.762;2022-12-11T10:51:57;0.70;99.90
33255;DHT22;19623;52.482;9.762;2022-12-11T10:54:30;0.60;99.90
33255;DHT22;19623;52.482;9.762;2022-12-11T10:56:57;0.40;99.90
33255;DHT22;19623;52.482;9.762;2022-12-11T10:59:44;0.40;99.90
33255;DHT22;19623;52.482;9.762;2022-12-11T11:02:33;0.50;99.90
33255;DHT22;19623;52.482;9.762;2022-12-11T11:05:14;0.60;99.90
33255;DHT22;19623;52.482;9.762;2022-12-11T11:07:40;0.50;99.90
33255;DHT22;19623;52.482;9.762;2022-12-11T11:12:44;0.40;99.90
33255;DHT22;19623;52.482;9.762;2022-12-11T11:15:29;0.50;99.90
33255;DHT22;19623;52.482;9.762;2022-12-11T11:17:59;0.50;99.90
33255;DHT22;19623;52.482;9.762;2022-12-11T11:20:28;0.50;99.90
33255;DHT22;19623;52.482;9.762;2022-12-11T11:22:56;0.50;99.90
33255;DHT22;19623;52.482;9.762;2022-12-11T11:25:28;0.40;99.90
33255;DHT22;19623;52.482;9.762;2022-12-11T11:27:59;0.30;99.90
33255;DHT22;19623;52.482;9.762;2022-12-11T11:30:37;0.30;99.90
33255;DHT22;19623;52.482;9.762;2022-12-11T11:33:17;0.30;99.90
33255;DHT22;19623;52.482;9.762;2022-12-11T11:36:16;0.30;99.90
33255;DHT22;19623;52.482;9.762;2022-12-11T11:38:50;0.40;99.90
33255;DHT22;19623;52.482;9.762;2022-12-11T11:41:23;0.40;99.90
33255;DHT22;19623;52.482;9.762;2022-12-11T11:43:59;0.40;99.90
33255;DHT22;19623;52.482;9.762;2022-12-11T11:46:54;0.40;99.90
33255;DHT22;19623;52.482;9.762;2022-12-11T11:52:23;0.40;99.90
33255;DHT22;19623;52.482;9.762;2022-12-11T11:57:48;0.40;99.90
33255;DHT22;19623;52.482;9.762;2022-12-11T12:00:26;0.30;99.90
33255;DHT22;19623;52.482;9.762;2022-12-11T12:02:58;0.30;99.90
33255;DHT22;19623;52.482;9.762;2022-12-11T12:08:19;0.10;99.90
33255;DHT22;19623;52.482;9.762;2022-12-11T12:11:08;0.10;99.90
33255;DHT22;19623;52.482;9.762;2022-12-11T12:16:41;0.20;99.90
33255;DHT22;19623;52.482;9.762;2022-12-11T12:19:25;0.30;99.90
33255;DHT22;19623;52.482;9.762;2022-12-11T12:21:53;0.30;99.90
33255;DHT22;19623;52.482;9.762;2022-12-11T12:27:12;0.30;99.90
33255;DHT22;19623;52.482;9.762;2022-12-11T12:29:59;0.20;99.90
33255;DHT22;19623;52.482;9.762;2022-12-11T12:38:22;0.20;99.90
33255;DHT22;19623;52.482;9.762;2022-12-11T12:52:00;0.40;99.90
33255;DHT22;19623;52.482;9.762;2022-12-11T12:54:29;0.40;99.90
33255;DHT22;19623;52.482;9.762;2022-12-11T12:56:57;0.30;99.90
33255;DHT22;19623;52.482;9.762;2022-12-11T12:59:26;0.40;99.90
33255;DHT22;19623;52.482;9.762;2022-12-11T13:02:00;0.50;99.90
33255;DHT22;19623;52.482;9.762;2022-12-11T13:06:54;0.50;99.90
33255;DHT22;19623;52.482;9.762;2022-12-11T13:09:25;0.50;99.90
33255;DHT22;19623;52.482;9.762;2022-12-11T13:11:54;0.50;99.90
33255;DHT22;19623;52.482;9.762;2022-12-11T13:19:49;0.80;99.90
33255;DHT22;19623;52.482;9.762;2022-12-11T13:22:22;0.90;99.90
33255;DHT22;19623;52.482;9.762;2022-12-11T13:25:25;1.00;99.90
33255;DHT22;19623;52.482;9.762;2022-12-11T13:28:06;1.00;99.90
33255;DHT22;19623;52.482;9.762;2022-12-11T13:30:35;1.10;99.90
33255;DHT22;19623;52.482;9.762;2022-12-11T13:33:04;1.20;99.90
33255;DHT22;19623;52.482;9.762;2022-12-11T13:35:32;1.10;99.90
33255;DHT22;19623;52.482;9.762;2022-12-11T13:38:24;1.10;99.90
33255;DHT22;19623;52.482;9.762;2022-12-11T13:40:53;1.00;99.90
33255;DHT22;19623;52.482;9.762;2022-12-11T13:43:25;1.00;99.90
33255;DHT22;19623;52.482;9.762;2022-12-11T13:45:57;0.90;99.90
33255;DHT22;19623;52.482;9.762;2022-12-11T13:48:37;0.90;99.90
33255;DHT22;19623;52.482;9.762;2022-12-11T13:51:04;0.80;99.90
33255;DHT22;19623;52.482;9.762;2022-12-11T13:53:31;0.70;99.90
33255;DHT22;19623;52.482;9.762;2022-12-11T13:56:02;0.60;99.90
33255;DHT22;19623;52.482;9.762;2022-12-11T13:58:32;0.40;99.90
33255;DHT22;19623;52.482;9.762;2022-12-11T14:01:11;0.30;99.90
33255;DHT22;19623;52.482;9.762;2022-12-11T14:03:53;0.00;99.90
33255;DHT22;19623;52.482;9.762;2022-12-11T14:06:20;-0.10;99.90
33255;DHT22;19623;52.482;9.762;2022-12-11T14:08:49;-0.20;99.90
33255;DHT22;19623;52.482;9.762;2022-12-11T14:11:21;-0.30;99.90
33255;DHT22;19623;52.482;9.762;2022-12-11T14:13:48;-0.30;99.90
33255;DHT22;19623;52.482;9.762;2022-12-11T14:16:20;-0.40;99.90
33255;DHT22;19623;52.482;9.762;2022-12-11T14:18:48;-0.40;99.90
33255;DHT22;19623;52.482;9.762;2022-12-11T14:21:24;-0.40;99.90
33255;DHT22;19623;52.482;9.762;2022-12-11T14:24:04;-0.40;99.90
33255;DHT22;19623;52.482;9.762;2022-12-11T14:26:35;-0.40;99.90
33255;DHT22;19623;52.482;9.762;2022-12-11T14:29:05;-0.50;99.90
33255;DHT22;19623;52.482;9.762;2022-12-11T14:31:37;-0.50;99.90
33255;DHT22;19623;52.482;9.762;2022-12-11T14:34:38;-0.60;99.90
33255;DHT22;19623;52.482;9.762;2022-12-11T14:37:08;-0.60;99.90
33255;DHT22;19623;52.482;9.762;2022-12-11T14:39:53;-0.60;99.90
33255;DHT22;19623;52.482;9.762;2022-12-11T14:42:22;-0.70;99.90
33255;DHT22;19623;52.482;9.762;2022-12-11T14:44:56;-0.70;99.90
33255;DHT22;19623;52.482;9.762;2022-12-11T14:47:27;-0.70;99.90
33255;DHT22;19623;52.482;9.762;2022-12-11T14:52:42;-1.00;99.90
33255;DHT22;19623;52.482;9.762;2022-12-11T14:55:22;-1.00;99.90
33255;DHT22;19623;52.482;9.762;2022-12-11T14:57:51;-1.10;99.90
33255;DHT22;19623;52.482;9.762;2022-12-11T15:00:24;-1.10;99.90
33255;DHT22;19623;52.482;9.762;2022-12-11T15:05:56;-1.10;99.90
33255;DHT22;19623;52.482;9.762;2022-12-11T15:08:29;-1.10;99.90
33255;DHT22;19623;52.482;9.762;2022-12-11T15:11:13;-1.10;99.90
33255;DHT22;19623;52.482;9.762;2022-12-11T15:13:52;-1.20;99.90
33255;DHT22;19623;52.482;9.762;2022-12-11T15:16:19;-1.20;99.90
33255;DHT22;19623;52.482;9.762;2022-12-11T15:18:50;-1.20;99.90
33255;DHT22;19623;52.482;9.762;2022-12-11T15:21:19;-1.30;99.90
33255;DHT22;19623;52.482;9.762;2022-12-11T15:23:55;-1.30;99.90
33255;DHT22;19623;52.482;9.762;2022-12-11T15:29:21;-1.40;99.90
33255;DHT22;19623;52.482;9.762;2022-12-11T15:34:32;-1.40;99.90
33255;DHT22;19623;52.482;9.762;2022-12-11T15:36:58;-1.40;99.90
33255;DHT22;19623;52.482;9.762;2022-12-11T15:39:24;-1.40;99.90
33255;DHT22;19623;52.482;9.762;2022-12-11T15:41:52;-1.40;99.90
33255;DHT22;19623;52.482;9.762;2022-12-11T15:44:20;-1.50;99.90
33255;DHT22;19623;52.482;9.762;2022-12-11T15:46:52;-1.50;99.90
33255;DHT22;19623;52.482;9.762;2022-12-11T15:49:21;-1.50;99.90
33255;DHT22;19623;52.482;9.762;2022-12-11T15:51:48;-1.60;99.90
33255;DHT22;19623;52.482;9.762;2022-12-11T15:54:14;-1.70;99.90
33255;DHT22;19623;52.482;9.762;2022-12-11T15:56:39;-1.80;99.90
33255;DHT22;19623;52.482;9.762;2022-12-11T15:59:05;-1.90;99.90
33255;DHT22;19623;52.482;9.762;2022-12-11T16:01:31;-2.00;99.90
33255;DHT22;19623;52.482;9.762;2022-12-11T16:03:57;-2.00;99.90
33255;DHT22;19623;52.482;9.762;2022-12-11T16:06:26;-2.10;99.90
33255;DHT22;19623;52.482;9.762;2022-12-11T16:08:51;-2.10;99.90
33255;DHT22;19623;52.482;9.762;2022-12-11T16:11:20;-2.10;99.90
33255;DHT22;19623;52.482;9.762;2022-12-11T16:13:46;-2.00;99.90
33255;DHT22;19623;52.482;9.762;2022-12-11T16:16:12;-2.00;99.90
33255;DHT22;19623;52.482;9.762;2022-12-11T16:18:38;-2.00;99.90
33255;DHT22;19623;52.482;9.762;2022-12-11T16:21:04;-2.10;99.90
33255;DHT22;19623;52.482;9.762;2022-12-11T16:23:30;-2.10;99.90
33255;DHT22;19623;52.482;9.762;2022-12-11T16:26:05;-2.10;99.90
33255;DHT22;19623;52.482;9.762;2022-12-11T16:28:32;-2.10;99.90
33255;DHT22;19623;52.482;9.762;2022-12-11T16:31:02;-2.20;99.90
33255;DHT22;19623;52.482;9.762;2022-12-11T16:33:31;-2.20;99.90
33255;DHT22;19623;52.482;9.762;2022-12-11T16:35:56;-2.30;99.90
33255;DHT22;19623;52.482;9.762;2022-12-11T16:38:23;-2.30;99.90
33255;DHT22;19623;52.482;9.762;2022-12-11T16:40:58;-2.40;99.90
33255;DHT22;19623;52.482;9.762;2022-12-11T16:43:24;-2.40;99.90
33255;DHT22;19623;52.482;9.762;2022-12-11T16:45:53;-2.50;99.90
33255;DHT22;19623;52.482;9.762;2022-12-11T16:48:20;-2.50;99.90
33255;DHT22;19623;52.482;9.762;2022-12-11T16:50:45;-2.50;99.90
33255;DHT22;19623;52.482;9.762;2022-12-11T16:53:11;-2.60;99.90
33255;DHT22;19623;52.482;9.762;2022-12-11T16:55:39;-2.80;99.90
33255;DHT22;19623;52.482;9.762;2022-12-11T16:58:05;-2.90;99.90
33255;DHT22;19623;52.482;9.762;2022-12-11T17:00:31;-2.80;99.90
33255;DHT22;19623;52.482;9.762;2022-12-11T17:02:57;-2.90;99.90
33255;DHT22;19623;52.482;9.762;2022-12-11T17:05:23;-2.80;99.90
33255;DHT22;19623;52.482;9.762;2022-12-11T17:07:49;-2.80;99.90
33255;DHT22;19623;52.482;9.762;2022-12-11T17:10:15;-2.80;99.90
33255;DHT22;19623;52.482;9.762;2022-12-11T17:12:40;-2.80;99.90
33255;DHT22;19623;52.482;9.762;2022-12-11T17:15:06;-2.80;99.90
33255;DHT22;19623;52.482;9.762;2022-12-11T17:17:32;-2.80;99.90
33255;DHT22;19623;52.482;9.762;2022-12-11T17:19:58;-2.70;99.90
33255;DHT22;19623;52.482;9.762;2022-12-11T17:22:24;-2.70;99.90
33255;DHT22;19623;52.482;9.762;2022-12-11T17:24:50;-2.70;99.90
33255;DHT22;19623;52.482;9.762;2022-12-11T17:27:20;-2.70;99.90
33255;DHT22;19623;52.482;9.762;2022-12-11T17:29:46;-2.70;99.90